Time;durP1;ratioP1;P1;durP2;ratioP2;P2;SDS_P1;SDS_P2;PMS_P1;PMS_P2;Temp;Humidity;BMP_temperature;BMP_pressure;BME280_temperature;BME280_humidity;BME280_pressure;Samples;Min_cycle;Max_cycle;Signal;HPM_P1;HPM_P2
2022/07/30 00:02:19;;;;;;;13.40;7.65;;;;;;;;;;5099228;28;20517;-79
2022/07/30 00:04:45;;;;;;;10.65;7.60;;;;;;;;;;5120414;27;20410;-79
2022/07/30 00:07:12;;;;;;;11.23;7.80;;;;;;;;;;5093988;28;20756;-78
2022/07/30 00:09:37;;;;;;;13.45;8.15;;;17.50;99.90;;;;;;5118216;27;20514;-78
2022/07/30 00:12:04;;;;;;;11.70;7.95;;;;;;;;;;5126026;27;20989;-78
2022/07/30 00:14:31;;;;;;;11.77;8.70;;;;;;;;;;5129064;28;20906;-79
2022/07/30 00:16:57;;;;;;;11.53;8.90;;;17.00;99.90;;;;;;5113952;28;20406;-79
2022/07/30 00:19:23;;;;;;;13.30;8.67;;;;;;;;;;5117460;27;20474;-79
2022/07/30 00:21:49;;;;;;;15.02;8.18;;;;;;;;;;5106434;28;20429;-80
2022/07/30 00:24:15;;;;;;;10.65;7.35;;;;;;;;;;5115839;28;20416;-80
2022/07/30 00:26:41;;;;;;;10.03;7.40;;;;;;;;;;5093486;28;20453;-80
2022/07/30 00:29:07;;;;;;;11.25;6.95;;;;;;;;;;5111252;27;20420;-80
2022/07/30 00:31:33;;;;;;;10.45;7.53;;;;;;;;;;5120095;27;20424;-79
2022/07/30 00:33:59;;;;;;;11.02;7.40;;;17.10;99.90;;;;;;5109404;27;20977;-78
2022/07/30 00:36:25;;;;;;;9.38;7.07;;;;;;;;;;5117943;27;20403;-79
2022/07/30 00:38:52;;;;;;;12.27;6.90;;;;;;;;;;5123076;27;20416;-79
2022/07/30 00:41:17;;;;;;;9.83;7.37;;;16.80;99.90;;;;;;5125468;27;20562;-79
2022/07/30 00:43:44;;;;;;;9.97;7.77;;;17.10;99.90;;;;;;5110687;27;20919;-79
2022/07/30 00:46:10;;;;;;;12.68;8.40;;;;;;;;;;5114410;28;20416;-79
2022/07/30 00:48:36;;;;;;;11.32;8.15;;;;;;;;;;5117418;27;20428;-79
2022/07/30 00:51:02;;;;;;;11.43;8.35;;;17.00;99.90;;;;;;5125249;27;20429;-79
2022/07/30 00:53:28;;;;;;;12.38;9.15;;;;;;;;;;5134907;27;20402;-79
2022/07/30 00:55:54;;;;;;;12.77;8.70;;;16.80;99.90;;;;;;5134356;27;20418;-79
2022/07/30 00:58:20;;;;;;;12.80;9.02;;;;;;;;;;5121959;27;20426;-79
2022/07/30 01:00:46;;;;;;;13.68;8.73;;;;;;;;;;5120182;27;20420;-79
2022/07/30 01:03:11;;;;;;;13.32;8.85;;;16.80;99.90;;;;;;5097032;28;20416;-79
2022/07/30 01:05:37;;;;;;;10.33;8.30;;;;;;;;;;5097047;28;20403;-79
2022/07/30 01:08:04;;;;;;;10.43;8.50;;;;;;;;;;5095877;27;20590;-79
2022/07/30 01:10:30;;;;;;;14.50;8.95;;;;;;;;;;5117417;27;20856;-79
2022/07/30 01:12:57;;;;;;;10.45;8.52;;;;;;;;;;5135020;27;20422;-79
2022/07/30 01:15:24;;;;;;;10.60;7.93;;;16.50;99.90;;;;;;5112390;27;20821;-79
2022/07/30 01:17:52;;;;;;;10.05;7.95;;;16.30;99.90;;;;;;5113031;27;20407;-79
2022/07/30 01:20:48;;;;;;;11.30;7.93;;;16.20;99.90;;;;;;5121526;27;20418;-79
2022/07/30 01:23:14;;;;;;;9.10;7.80;;;;;;;;;;5113540;28;20491;-79
2022/07/30 01:25:56;;;;;;;9.70;7.70;;;;;;;;;;5124550;27;20410;-79
2022/07/30 01:28:27;;;;;;;11.00;8.10;;;16.30;99.90;;;;;;5131294;27;20419;-79
2022/07/30 01:30:55;;;;;;;11.02;8.25;;;16.10;99.90;;;;;;5128617;27;20414;-77
2022/07/30 01:33:23;;;;;;;12.82;8.70;;;16.10;99.90;;;;;;5105285;27;20422;-77
2022/07/30 01:35:50;;;;;;;9.52;7.97;;;16.10;99.90;;;;;;5134497;27;20402;-78
2022/07/30 01:38:20;;;;;;;10.98;8.77;;;16.00;99.90;;;;;;5111567;28;20516;-77
2022/07/30 01:40:48;;;;;;;12.23;8.40;;;16.20;99.90;;;;;;5128641;27;20426;-77
2022/07/30 01:43:16;;;;;;;13.45;9.45;;;15.80;99.90;;;;;;5130730;27;20492;-77
2022/07/30 01:45:43;;;;;;;10.70;8.77;;;;;;;;;;5132477;27;20804;-77
2022/07/30 01:48:11;;;;;;;12.68;9.13;;;15.50;99.90;;;;;;5135613;27;20506;-78
2022/07/30 01:50:41;;;;;;;13.65;8.80;;;15.50;99.90;;;;;;5131413;27;20526;-78
2022/07/30 01:53:07;;;;;;;10.02;8.02;;;;;;;;;;5116570;27;20438;-78
2022/07/30 01:55:35;;;;;;;10.52;8.60;;;15.20;99.90;;;;;;5116567;27;20463;-78
2022/07/30 01:58:03;;;;;;;10.10;7.70;;;;;;;;;;5124185;27;20420;-78
2022/07/30 02:00:30;;;;;;;9.25;7.78;;;;;;;;;;5113738;27;20422;-78
2022/07/30 02:02:57;;;;;;;10.23;8.18;;;15.50;99.90;;;;;;5146845;27;20443;-78
2022/07/30 02:05:23;;;;;;;10.95;8.20;;;;;;;;;;5153604;27;20397;-78
2022/07/30 02:07:55;;;;;;;11.00;8.10;;;;;;;;;;5133649;27;20980;-78
2022/07/30 02:10:35;;;;;;;9.30;7.20;;;15.50;99.90;;;;;;5115665;27;20490;-77
2022/07/30 02:13:04;;;;;;;10.25;8.23;;;15.00;99.90;;;;;;5131437;27;20414;-77
2022/07/30 02:15:55;;;;;;;10.07;7.90;;;15.20;99.90;;;;;;5133719;27;20810;-78
2022/07/30 02:18:49;;;;;;;9.70;8.35;;;15.10;99.90;;;;;;5128649;27;20429;-78
2022/07/30 02:21:18;;;;;;;11.75;8.70;;;15.20;99.90;;;;;;5096281;28;20435;-78
2022/07/30 02:23:47;;;;;;;12.68;8.63;;;15.30;99.90;;;;;;5112644;28;20401;-78
2022/07/30 02:26:17;;;;;;;10.40;8.82;;;;;;;;;;5117147;27;20510;-78
2022/07/30 02:28:46;;;;;;;11.32;8.85;;;15.00;99.90;;;;;;5118120;27;20743;-78
2022/07/30 02:31:16;;;;;;;12.43;8.63;;;15.10;99.90;;;;;;5132989;27;20429;-77
2022/07/30 02:33:42;;;;;;;13.30;9.65;;;;;;;;;;5153923;27;20410;-78
2022/07/30 02:36:09;;;;;;;22.85;10.10;;;;;;;;;;5155324;27;20391;-78
2022/07/30 02:38:36;;;;;;;12.90;10.30;;;;;;;;;;5148483;27;20419;-78
2022/07/30 02:41:03;;;;;;;14.98;10.05;;;;;;;;;;5110841;27;20463;-78
2022/07/30 02:43:29;;;;;;;11.25;9.90;;;;;;;;;;5133366;27;20478;-78
2022/07/30 02:45:55;;;;;;;13.02;10.45;;;;;;;;;;5131660;27;20395;-78
2022/07/30 02:48:22;;;;;;;16.20;10.80;;;;;;;;;;5112518;28;20408;-78
2022/07/30 02:50:50;;;;;;;13.10;10.73;;;15.10;99.90;;;;;;5112525;28;20862;-78
2022/07/30 02:53:18;;;;;;;17.60;11.32;;;15.00;99.90;;;;;;5112617;28;20403;-78
2022/07/30 02:55:45;;;;;;;14.13;11.90;;;14.70;99.90;;;;;;5112424;28;20475;-78
2022/07/30 02:58:15;;;;;;;14.18;11.30;;;15.00;99.90;;;;;;5095554;28;20894;-78
2022/07/30 03:00:42;;;;;;;16.52;11.73;;;;;;;;;;5095494;28;20396;-78
2022/07/30 03:03:08;;;;;;;15.38;11.27;;;;;;;;;;5112271;28;20458;-78
2022/07/30 03:05:34;;;;;;;12.03;10.70;;;;;;;;;;5112247;28;20396;-78
2022/07/30 03:08:01;;;;;;;14.55;11.55;;;;;;;;;;5112210;28;20439;-78
2022/07/30 03:10:28;;;;;;;17.08;11.10;;;14.80;99.90;;;;;;5095004;28;20404;-78
2022/07/30 03:12:55;;;;;;;13.70;10.65;;;14.80;99.90;;;;;;5111844;28;20400;-78
2022/07/30 03:15:21;;;;;;;13.88;11.35;;;;;;;;;;5112057;28;20408;-78
2022/07/30 03:17:51;;;;;;;15.98;12.98;;;14.80;99.90;;;;;;5111814;28;20411;-78
2022/07/30 03:20:21;;;;;;;17.27;13.35;;;14.90;99.90;;;;;;5111701;27;20404;-78
2022/07/30 03:22:51;;;;;;;17.15;14.10;;;15.00;99.90;;;;;;5126094;27;20419;-78
2022/07/30 03:25:24;;;;;;;62.22;18.52;;;14.90;99.90;;;;;;5113141;28;20809;-78
2022/07/30 03:27:51;;;;;;;107.93;21.00;;;;;;;;;;5094347;28;20412;-78
2022/07/30 03:30:17;;;;;;;25.95;18.42;;;;;;;;;;5128624;27;21103;-78
2022/07/30 03:32:44;;;;;;;24.65;19.17;;;;;;;;;;5142424;27;20803;-78
2022/07/30 03:35:10;;;;;;;21.73;17.20;;;;;;;;;;5129933;27;20399;-78
2022/07/30 03:37:37;;;;;;;21.90;16.38;;;14.60;99.90;;;;;;5134248;27;20891;-78
2022/07/30 03:40:04;;;;;;;19.58;15.75;;;;;;;;;;5111599;27;20424;-78
2022/07/30 03:42:31;;;;;;;18.20;14.48;;;;;;;;;;5115319;28;20399;-79
2022/07/30 03:44:57;;;;;;;18.13;13.88;;;;;;;;;;5084516;27;20421;-79
2022/07/30 03:47:24;;;;;;;16.48;14.32;;;14.80;99.90;;;;;;5098623;27;20412;-79
2022/07/30 03:49:51;;;;;;;16.77;12.95;;;14.70;99.90;;;;;;5113277;27;20437;-78
2022/07/30 03:52:18;;;;;;;15.07;13.38;;;14.50;99.90;;;;;;5111838;28;20451;-77
2022/07/30 03:54:45;;;;;;;16.35;13.13;;;14.40;99.90;;;;;;5111606;28;20888;-78
2022/07/30 03:57:11;;;;;;;16.95;13.98;;;;;;;;;;5117092;28;20493;-78
2022/07/30 03:59:38;;;;;;;18.00;13.70;;;;;;;;;;5130958;27;20418;-79
2022/07/30 04:02:04;;;;;;;16.50;12.88;;;;;;;;;;5120585;27;20465;-78
2022/07/30 04:04:30;;;;;;;14.95;11.88;;;;;;;;;;5114774;27;20427;-78
2022/07/30 04:06:57;;;;;;;13.40;10.93;;;14.50;99.90;;;;;;5118292;27;20892;-78
2022/07/30 04:09:23;;;;;;;12.77;11.48;;;;;;;;;;5117658;27;20428;-78
2022/07/30 04:11:49;;;;;;;13.98;12.48;;;;;;;;;;5117723;27;20411;-78
2022/07/30 04:14:16;;;;;;;14.45;12.32;;;;;;;;;;5123046;27;20408;-78
2022/07/30 04:16:54;;;;;;;13.80;11.90;;;;;;;;;;5119908;27;20483;-78
2022/07/30 04:19:30;;;;;;;13.50;11.73;;;14.20;99.90;;;;;;5123646;27;20952;-78
2022/07/30 04:21:56;;;;;;;13.57;11.93;;;;;;;;;;5130506;27;20471;-78
2022/07/30 04:24:23;;;;;;;13.20;11.90;;;;;;;;;;5138565;27;20451;-78
2022/07/30 04:26:50;;;;;;;13.23;11.88;;;14.20;99.90;;;;;;5136599;27;20423;-78
2022/07/30 04:29:16;;;;;;;13.20;11.80;;;14.40;99.90;;;;;;5132862;27;20418;-77
2022/07/30 04:31:43;;;;;;;13.07;11.20;;;;;;;;;;5119236;27;20420;-78
2022/07/30 04:34:15;;;;;;;12.20;10.90;;;14.50;99.90;;;;;;5100924;28;20478;-78
2022/07/30 04:36:42;;;;;;;13.35;11.95;;;14.40;99.90;;;;;;5124606;27;20563;-78
2022/07/30 04:39:08;;;;;;;13.32;11.93;;;;;;;;;;5113599;27;20422;-78
2022/07/30 04:41:35;;;;;;;14.27;12.30;;;;;;;;;;5126514;27;20420;-77
2022/07/30 04:44:01;;;;;;;12.98;11.35;;;;;;;;;;5138126;27;20418;-78
2022/07/30 04:46:27;;;;;;;13.43;10.60;;;;;;;;;;5136578;27;20430;-78
2022/07/30 04:48:53;;;;;;;11.07;9.98;;;;;;;;;;5129416;27;20423;-78
2022/07/30 04:51:27;;;;;;;11.23;9.70;;;14.40;99.90;;;;;;5132817;27;20774;-78
2022/07/30 04:53:54;;;;;;;10.60;9.60;;;14.50;99.90;;;;;;5138132;27;20398;-78
2022/07/30 04:56:21;;;;;;;9.43;8.52;;;;;;;;;;5125301;27;20420;-78
2022/07/30 04:58:47;;;;;;;10.25;9.25;;;;;;;;;;5118990;27;20844;-78
2022/07/30 05:01:19;;;;;;;10.43;9.20;;;14.50;99.90;;;;;;5136067;27;20490;-78
2022/07/30 05:03:46;;;;;;;9.43;8.52;;;;;;;;;;5142452;27;20513;-78
2022/07/30 05:06:12;;;;;;;10.52;9.52;;;;;;;;;;5159041;27;20415;-78
2022/07/30 05:08:39;;;;;;;10.80;9.80;;;;;;;;;;5122783;27;20427;-78
2022/07/30 05:11:05;;;;;;;11.13;10.02;;;;;;;;;;5123732;27;20445;-80
2022/07/30 05:13:31;;;;;;;10.80;9.70;;;;;;;;;;5121033;27;20792;-79
2022/07/30 05:15:57;;;;;;;10.55;9.55;;;;;;;;;;5118144;27;20492;-78
2022/07/30 05:18:23;;;;;;;11.00;10.00;;;;;;;;;;5115537;27;20418;-78
2022/07/30 05:20:49;;;;;;;10.93;9.82;;;;;;;;;;5129655;27;20798;-78
2022/07/30 05:23:15;;;;;;;10.75;9.65;;;;;;;;;;5117835;27;20428;-78
2022/07/30 05:25:42;;;;;;;12.30;9.85;;;;;;;;;;5132649;27;20505;-78
2022/07/30 05:28:08;;;;;;;11.35;10.18;;;;;;;;;;5133761;27;20414;-78
2022/07/30 05:30:35;;;;;;;18.52;10.70;;;;;;;;;;5112148;28;20416;-78
2022/07/30 05:33:01;;;;;;;19.80;10.52;;;;;;;;;;5115701;27;20424;-78
2022/07/30 05:35:27;;;;;;;15.20;10.70;;;;;;;;;;5130973;27;20438;-77
2022/07/30 05:37:53;;;;;;;19.58;11.43;;;;;;;;;;5113432;28;20408;-77
2022/07/30 05:40:19;;;;;;;26.35;11.90;;;;;;;;;;5113283;27;20420;-78
2022/07/30 05:42:45;;;;;;;14.77;11.75;;;15.10;99.90;;;;;;5118267;27;20500;-79
2022/07/30 05:45:10;;;;;;;22.80;12.90;;;15.10;99.90;;;;;;5113925;28;20832;-78
2022/07/30 05:47:36;;;;;;;21.42;12.98;;;;;;;;;;5118158;27;20392;-77
2022/07/30 05:50:02;;;;;;;14.45;12.82;;;;;;;;;;5087397;28;20456;-78
2022/07/30 05:52:28;;;;;;;34.25;14.68;;;;;;;;;;5121262;27;20776;-78
2022/07/30 05:54:55;;;;;;;19.92;14.60;;;;;;;;;;5113547;28;20453;-79
2022/07/30 05:57:21;;;;;;;19.27;15.30;;;;;;;;;;5107393;27;20425;-77
2022/07/30 05:59:48;;;;;;;25.58;16.65;;;;;;;;;;5127800;27;20505;-77
2022/07/30 06:02:14;;;;;;;27.17;17.03;;;;;;;;;;5120133;27;20926;-78
2022/07/30 06:04:41;;;;;;;31.60;18.33;;;;;;;;;;5143955;27;20403;-78
2022/07/30 06:07:06;;;;;;;29.10;16.58;;;15.70;99.90;;;;;;5096542;28;20827;-78
2022/07/30 06:09:32;;;;;;;24.97;16.93;;;;;;;;;;5130668;27;20489;-78
2022/07/30 06:11:59;;;;;;;23.10;16.08;;;;;;;;;;5130210;27;20410;-79
2022/07/30 06:14:25;;;;;;;20.73;16.07;;;;;;;;;;5116199;27;20765;-78
2022/07/30 06:16:51;;;;;;;23.70;15.00;;;;;;;;;;5122897;27;20408;-78
2022/07/30 06:19:17;;;;;;;17.83;14.35;;;;;;;;;;5115908;27;20419;-78
2022/07/30 06:21:43;;;;;;;22.15;14.73;;;;;;;;;;5112835;27;20414;-78
2022/07/30 06:24:09;;;;;;;20.42;14.52;;;;;;;;;;5115928;27;20401;-79
2022/07/30 06:26:35;;;;;;;17.38;13.95;;;;;;;;;;5130761;27;20426;-78
2022/07/30 06:29:00;;;;;;;19.02;14.13;;;17.10;99.90;;;;;;5127190;27;20428;-78
2022/07/30 06:31:26;;;;;;;19.67;14.37;;;;;;;;;;5112158;27;20420;-76
2022/07/30 06:33:53;;;;;;;18.53;14.00;;;;;;;;;;5111628;27;20975;-76
2022/07/30 06:36:18;;;;;;;20.30;14.95;;;17.40;99.90;;;;;;5081908;28;20442;-75
2022/07/30 06:38:44;;;;;;;19.43;14.43;;;;;;;;;;5122275;27;20929;-76
2022/07/30 06:41:11;;;;;;;19.63;14.18;;;;;;;;;;5094873;28;20556;-76
2022/07/30 06:43:37;;;;;;;20.70;14.33;;;;;;;;;;5112024;27;20456;-76
2022/07/30 06:46:03;;;;;;;16.08;13.95;;;;;;;;;;5114853;27;20535;-74
2022/07/30 06:48:30;;;;;;;20.48;13.57;;;;;;;;;;5130112;27;20423;-74
2022/07/30 06:50:56;;;;;;;19.02;12.90;;;;;;;;;;5115946;27;20495;-74
2022/07/30 06:53:22;;;;;;;18.38;12.38;;;;;;;;;;5125210;27;20429;-74
2022/07/30 06:55:49;;;;;;;16.70;12.45;;;18.20;99.90;;;;;;5116315;27;20422;-74
2022/07/30 06:58:16;;;;;;;16.63;11.33;;;;;;;;;;5111793;27;21008;-76
2022/07/30 07:00:43;;;;;;;19.35;11.52;;;18.40;99.90;;;;;;5120654;27;20878;-75
2022/07/30 07:03:10;;;;;;;18.20;10.93;;;18.20;99.90;;;;;;5123425;27;20449;-74
2022/07/30 07:05:36;;;;;;;17.70;10.68;;;;;;;;;;5122254;27;20918;-74
2022/07/30 07:08:02;;;;;;;15.20;9.77;;;;;;;;;;5108222;28;20443;-75
2022/07/30 07:10:28;;;;;;;15.20;9.85;;;;;;;;;;5126837;27;20919;-74
2022/07/30 07:12:54;;;;;;;15.98;9.68;;;18.70;99.90;;;;;;5130495;27;20465;-75
2022/07/30 07:15:20;;;;;;;16.15;9.93;;;19.00;99.90;;;;;;5130433;27;20883;-75
2022/07/30 07:17:46;;;;;;;16.90;10.45;;;18.90;99.90;;;;;;5129745;27;20878;-75
2022/07/30 07:20:12;;;;;;;17.40;10.75;;;;;;;;;;5129807;27;20461;-75
2022/07/30 07:22:38;;;;;;;16.80;9.70;;;19.10;99.90;;;;;;5127964;27;20421;-75
2022/07/30 07:25:04;;;;;;;14.45;9.98;;;19.50;99.90;;;;;;5118024;27;20420;-74
2022/07/30 07:27:31;;;;;;;20.38;9.82;;;19.30;99.90;;;;;;5111078;28;20531;-75
2022/07/30 07:29:57;;;;;;;14.50;9.75;;;;;;;;;;5093392;28;20473;-75
2022/07/30 07:32:22;;;;;;;13.00;8.73;;;19.40;99.90;;;;;;5117991;27;20426;-75
2022/07/30 07:34:48;;;;;;;14.52;8.60;;;19.60;99.90;;;;;;5128831;27;20800;-74
2022/07/30 07:37:15;;;;;;;15.02;8.10;;;;;;;;;;5106185;27;20421;-75
2022/07/30 07:39:41;;;;;;;16.17;8.50;;;20.10;99.90;;;;;;5111219;27;20424;-76
2022/07/30 07:42:07;;;;;;;14.87;9.03;;;;;;;;;;5102848;27;20497;-76
2022/07/30 07:44:32;;;;;;;13.13;7.57;;;19.90;99.90;;;;;;5127276;27;20812;-74
2022/07/30 07:46:58;;;;;;;15.17;6.90;;;20.10;99.90;;;;;;5124741;27;20419;-76
2022/07/30 07:49:24;;;;;;;12.43;7.43;;;19.90;99.90;;;;;;5111595;27;20854;-77
2022/07/30 07:51:50;;;;;;;14.13;7.55;;;20.00;99.90;;;;;;5134587;27;20424;-77
2022/07/30 07:54:16;;;;;;;11.38;7.47;;;20.10;99.90;;;;;;5112560;27;20831;-78
2022/07/30 07:56:42;;;;;;;13.85;7.15;;;;;;;;;;5123017;27;20416;-77
2022/07/30 07:59:08;;;;;;;10.80;7.10;;;20.30;99.90;;;;;;5117240;27;20967;-77
2022/07/30 08:01:33;;;;;;;11.57;6.50;;;20.70;99.90;;;;;;5098047;27;20462;-78
2022/07/30 08:04:00;;;;;;;11.87;6.97;;;;;;;;;;5104291;28;20799;-78
2022/07/30 08:06:25;;;;;;;11.13;6.47;;;20.80;99.90;;;;;;5125203;27;20426;-78
2022/07/30 08:08:52;;;;;;;14.60;6.20;;;20.80;99.90;;;;;;5104191;28;21030;-78
2022/07/30 08:11:18;;;;;;;10.68;6.22;;;;;;;;;;5110779;28;20744;-77
2022/07/30 08:13:44;;;;;;;12.27;6.60;;;;;;;;;;5116632;27;20743;-77
2022/07/30 08:16:13;;;;;;;12.05;6.35;;;;;;;;;;5129473;28;20420;-78
2022/07/30 08:18:39;;;;;;;14.77;6.25;;;20.90;99.90;;;;;;5124163;27;20827;-75
2022/07/30 08:21:07;;;;;;;12.40;6.22;;;;;;;;;;5114766;27;20503;-75
2022/07/30 08:23:33;;;;;;;10.87;6.10;;;20.60;99.90;;;;;;5111521;28;20415;-75
2022/07/30 08:25:59;;;;;;;12.90;5.83;;;20.60;99.90;;;;;;5125951;27;20414;-75
2022/07/30 08:28:25;;;;;;;8.20;5.37;;;21.00;99.90;;;;;;5109455;28;20506;-77
2022/07/30 08:30:51;;;;;;;12.15;5.60;;;21.40;99.90;;;;;;5128284;27;20488;-75
2022/07/30 08:33:19;;;;;;;9.70;5.40;;;21.50;99.90;;;;;;5110031;28;20434;-76
2022/07/30 08:35:45;;;;;;;10.20;5.20;;;21.60;99.90;;;;;;5111288;27;20427;-75
2022/07/30 08:38:12;;;;;;;8.63;4.68;;;21.60;99.90;;;;;;5117515;27;20419;-76
2022/07/30 08:40:38;;;;;;;8.70;4.30;;;21.50;99.90;;;;;;5113946;27;20417;-80
2022/07/30 08:43:06;;;;;;;8.82;4.55;;;21.30;99.90;;;;;;5124030;27;20475;-81
2022/07/30 08:45:32;;;;;;;9.70;4.43;;;21.60;99.90;;;;;;5126862;27;20415;-81
2022/07/30 08:48:05;;;;;;;9.65;4.28;;;22.20;99.90;;;;;;5111568;28;20459;-81
2022/07/30 08:50:32;;;;;;;9.68;4.78;;;21.90;99.90;;;;;;5115668;27;20408;-80
2022/07/30 08:53:00;;;;;;;9.02;4.72;;;22.00;99.90;;;;;;5131487;27;20404;-81
2022/07/30 08:55:26;;;;;;;13.98;5.03;;;;;;;;;;5117038;27;20934;-82
2022/07/30 08:57:52;;;;;;;8.70;4.63;;;22.30;99.90;;;;;;5127556;27;20414;-82
2022/07/30 09:00:19;;;;;;;9.95;4.95;;;22.40;99.90;;;;;;5131543;27;20425;-82
2022/07/30 09:02:46;;;;;;;12.05;4.43;;;22.50;99.90;;;;;;5113161;27;20458;-82
2022/07/30 09:05:12;;;;;;;8.18;4.22;;;22.50;99.90;;;;;;5113373;28;20464;-81
2022/07/30 09:07:38;;;;;;;8.55;4.10;;;22.60;99.90;;;;;;5116343;27;20928;-81
2022/07/30 09:10:06;;;;;;;7.63;4.35;;;22.80;99.90;;;;;;5121414;27;20902;-81
2022/07/30 09:12:40;;;;;;;8.68;3.72;;;22.40;99.90;;;;;;5125577;27;20488;-82
2022/07/30 09:15:11;;;;;;;12.52;4.10;;;;;;;;;;5120639;27;20526;-82
2022/07/30 09:18:03;;;;;;;8.15;3.90;;;22.20;99.90;;;;;;5117482;27;20486;-82
2022/07/30 09:20:32;;;;;;;8.77;4.18;;;22.00;99.90;;;;;;5124206;27;20461;-81
2022/07/30 09:23:00;;;;;;;10.15;3.65;;;22.30;99.90;;;;;;5097190;28;20408;-82
2022/07/30 09:25:40;;;;;;;10.52;3.92;;;22.90;99.90;;;;;;5122326;27;20416;-81
2022/07/30 09:28:11;;;;;;;9.27;4.18;;;22.70;99.90;;;;;;5123398;27;20407;-80
2022/07/30 09:30:47;;;;;;;8.25;4.03;;;22.90;99.90;;;;;;5130259;27;20410;-79
2022/07/30 09:33:14;;;;;;;8.35;3.90;;;23.10;99.90;;;;;;5115743;27;20417;-81
2022/07/30 09:35:41;;;;;;;9.82;4.00;;;22.70;99.90;;;;;;5129988;27;20419;-81
2022/07/30 09:38:08;;;;;;;7.75;3.97;;;22.80;99.90;;;;;;5127398;27;20411;-81
2022/07/30 09:40:34;;;;;;;8.20;3.47;;;22.80;99.90;;;;;;5118974;27;20530;-78
2022/07/30 09:43:08;;;;;;;9.65;3.45;;;23.10;99.90;;;;;;5106311;27;20406;-79
2022/07/30 09:45:35;;;;;;;6.75;3.20;;;23.40;99.90;;;;;;5129609;27;20431;-79
2022/07/30 09:48:01;;;;;;;8.77;3.67;;;23.40;99.90;;;;;;5129527;27;20538;-78
2022/07/30 09:50:27;;;;;;;7.85;3.70;;;23.20;99.90;;;;;;5131108;27;20487;-79
2022/07/30 09:52:54;;;;;;;6.20;3.38;;;23.20;99.90;;;;;;5118294;27;20930;-78
2022/07/30 09:55:31;;;;;;;7.73;3.50;;;23.00;99.90;;;;;;5131254;27;20905;-79
2022/07/30 09:58:04;;;;;;;8.43;3.20;;;23.40;99.90;;;;;;5115348;27;20820;-78
2022/07/30 10:00:32;;;;;;;7.32;3.15;;;23.60;99.90;;;;;;5124205;27;20536;-79
2022/07/30 10:02:59;;;;;;;8.07;3.20;;;23.50;99.90;;;;;;5130289;27;20417;-79
2022/07/30 10:05:26;;;;;;;6.90;3.05;;;24.10;99.90;;;;;;5111475;27;20436;-76
2022/07/30 10:07:54;;;;;;;10.50;3.60;;;24.40;99.90;;;;;;5131289;27;20419;-76
2022/07/30 10:10:22;;;;;;;8.10;3.70;;;24.50;99.90;;;;;;5121728;27;20420;-77
2022/07/30 10:12:51;;;;;;;7.72;3.53;;;24.40;99.90;;;;;;5127426;27;20839;-76
2022/07/30 10:15:24;;;;;;;7.38;3.60;;;24.60;99.90;;;;;;5128460;27;20450;-75
2022/07/30 10:17:50;;;;;;;8.65;3.45;;;24.60;99.90;;;;;;5130508;27;20509;-76
2022/07/30 10:20:16;;;;;;;7.93;3.50;;;24.50;99.90;;;;;;5108849;27;20424;-78
2022/07/30 10:22:43;;;;;;;7.32;3.60;;;24.60;99.90;;;;;;5113615;27;20408;-75
2022/07/30 10:25:09;;;;;;;7.57;3.00;;;24.60;99.90;;;;;;5132867;27;20410;-75
2022/07/30 10:27:36;;;;;;;7.60;2.80;;;24.50;99.90;;;;;;5121199;27;20431;-76
2022/07/30 10:30:02;;;;;;;8.15;3.33;;;24.80;99.90;;;;;;5124341;27;20412;-76
2022/07/30 10:32:28;;;;;;;6.40;2.90;;;25.10;99.90;;;;;;5125388;27;20471;-76
2022/07/30 10:34:54;;;;;;;6.55;3.20;;;25.20;99.90;;;;;;5102647;27;20415;-75
2022/07/30 10:37:22;;;;;;;5.32;3.00;;;25.30;99.90;;;;;;5124752;27;20409;-75
2022/07/30 10:39:59;;;;;;;7.80;3.42;;;25.00;99.90;;;;;;5118146;27;20788;-76
2022/07/30 10:42:42;;;;;;;9.63;3.45;;;24.60;99.90;;;;;;5130930;27;20410;-76
2022/07/30 10:45:26;;;;;;;7.63;3.40;;;24.20;99.90;;;;;;5123241;27;20420;-76
2022/07/30 10:47:54;;;;;;;6.72;2.97;;;24.40;99.90;;;;;;5127217;27;20925;-76
2022/07/30 10:50:27;;;;;;;7.28;3.00;;;24.60;99.90;;;;;;5135774;27;20766;-77
2022/07/30 10:52:56;;;;;;;6.70;3.10;;;24.70;99.90;;;;;;5112383;27;20427;-76
2022/07/30 10:55:25;;;;;;;8.20;3.17;;;24.80;99.90;;;;;;5109040;27;20432;-75
2022/07/30 10:58:07;;;;;;;8.43;3.13;;;25.50;99.90;;;;;;5128380;27;20414;-75
2022/07/30 11:00:36;;;;;;;6.63;2.70;;;24.50;99.90;;;;;;5132729;27;20444;-73
2022/07/30 11:03:19;;;;;;;6.93;2.73;;;24.70;99.90;;;;;;5130657;27;20487;-76
2022/07/30 11:05:47;;;;;;;6.90;3.20;;;24.80;99.90;;;;;;5119019;27;20488;-75
2022/07/30 11:08:33;;;;;;;7.22;3.05;;;25.10;99.90;;;;;;5122365;27;20450;-75
2022/07/30 11:11:00;;;;;;;6.97;2.88;;;24.80;99.90;;;;;;5144176;27;20393;-76
2022/07/30 11:13:50;;;;;;;6.45;3.33;;;24.20;99.90;;;;;;5139474;27;20426;-75
2022/07/30 11:16:20;;;;;;;6.80;2.70;;;25.30;99.90;;;;;;5128049;27;20407;-76
2022/07/30 11:19:16;;;;;;;6.97;2.60;;;25.40;99.90;;;;;;5116009;27;20424;-76
2022/07/30 11:21:46;;;;;;;7.10;2.83;;;25.60;99.90;;;;;;5113039;27;20925;-76
2022/07/30 11:24:41;;;;;;;8.55;3.22;;;25.50;99.90;;;;;;5127253;27;20405;-76
2022/07/30 11:27:07;;;;;;;8.70;3.08;;;26.00;99.90;;;;;;5113185;27;20404;-76
2022/07/30 11:29:35;;;;;;;7.13;3.17;;;26.00;99.90;;;;;;5112467;28;20757;-75
2022/07/30 11:32:26;;;;;;;7.88;3.33;;;26.00;99.90;;;;;;5120984;27;20520;-75
2022/07/30 11:35:11;;;;;;;6.67;3.17;;;25.70;99.90;;;;;;5100241;27;20868;-74
2022/07/30 11:37:56;;;;;;;7.28;3.13;;;25.50;99.90;;;;;;5128085;27;20498;-75
2022/07/30 11:40:24;;;;;;;7.10;3.25;;;25.20;99.90;;;;;;5130560;27;20475;-74
2022/07/30 11:42:51;;;;;;;8.15;3.22;;;24.90;99.90;;;;;;5096564;27;20452;-75
2022/07/30 11:45:17;;;;;;;9.02;3.10;;;25.20;99.90;;;;;;5122101;27;20403;-75
2022/07/30 11:47:53;;;;;;;8.00;2.90;;;25.10;99.90;;;;;;5125704;27;20874;-75
2022/07/30 11:50:29;;;;;;;9.63;3.25;;;25.10;99.90;;;;;;5132110;27;20739;-77
2022/07/30 11:53:02;;;;;;;7.43;3.53;;;24.90;99.90;;;;;;5127505;27;20448;-76
2022/07/30 11:55:37;;;;;;;4.70;2.70;;;24.60;99.90;;;;;;5119169;27;20463;-74
2022/07/30 11:58:10;;;;;;;5.78;3.20;;;24.40;99.90;;;;;;5125188;27;20898;-74
2022/07/30 12:00:46;;;;;;;6.53;3.60;;;24.60;99.90;;;;;;5127809;27;20427;-76
2022/07/30 12:03:18;;;;;;;9.00;3.22;;;25.00;99.90;;;;;;5128284;27;20442;-74
2022/07/30 12:05:44;;;;;;;5.73;3.17;;;25.00;99.90;;;;;;5111438;27;20775;-75
2022/07/30 12:08:11;;;;;;;5.15;2.80;;;24.70;99.90;;;;;;5127814;27;20742;-76
2022/07/30 12:10:40;;;;;;;5.93;2.70;;;24.60;99.90;;;;;;5121565;27;20408;-75
2022/07/30 12:13:14;;;;;;;6.88;3.10;;;27.30;99.90;;;;;;5124409;28;20414;-78
2022/07/30 12:15:46;;;;;;;4.88;2.60;;;24.50;99.90;;;;;;5115081;28;20410;-77
2022/07/30 12:18:13;;;;;;;5.23;2.53;;;24.20;99.90;;;;;;5116610;27;21064;-77
2022/07/30 12:20:44;;;;;;;7.18;2.50;;;24.90;99.90;;;;;;5131412;27;20390;-77
2022/07/30 12:23:13;;;;;;;6.07;2.65;;;24.90;99.90;;;;;;5110565;28;20428;-77
2022/07/30 12:25:42;;;;;;;5.43;2.60;;;25.20;99.90;;;;;;5112975;27;20910;-77
2022/07/30 12:28:09;;;;;;;5.28;2.47;;;25.20;99.90;;;;;;5114135;27;20515;-77
2022/07/30 12:30:39;;;;;;;4.93;2.45;;;25.40;99.90;;;;;;5098252;27;20465;-77
2022/07/30 12:33:06;;;;;;;5.47;2.90;;;25.40;99.90;;;;;;5136708;27;20382;-77
2022/07/30 12:35:50;;;;;;;4.72;2.70;;;25.50;99.90;;;;;;5131924;27;20489;-77
2022/07/30 12:38:16;;;;;;;4.43;2.37;;;25.70;99.90;;;;;;5113934;27;20523;-77
2022/07/30 12:40:57;;;;;;;4.85;2.28;;;25.30;99.90;;;;;;5114791;28;20392;-77
2022/07/30 12:43:53;;;;;;;6.28;2.10;;;25.50;99.90;;;;;;5124890;27;20408;-77
2022/07/30 12:46:19;;;;;;;5.85;2.20;;;26.00;99.90;;;;;;5117389;27;20410;-78
2022/07/30 12:48:53;;;;;;;5.20;2.33;;;26.20;99.90;;;;;;5126455;27;20466;-78
2022/07/30 12:51:20;;;;;;;5.43;2.20;;;26.20;99.90;;;;;;5113926;28;20423;-78
2022/07/30 12:53:46;;;;;;;7.07;2.30;;;26.60;99.90;;;;;;5131972;27;20432;-78
2022/07/30 12:56:21;;;;;;;5.83;2.13;;;26.70;99.90;;;;;;5116229;27;20416;-78
2022/07/30 12:58:46;;;;;;;5.15;2.22;;;26.70;99.90;;;;;;5125007;27;20423;-78
2022/07/30 13:01:13;;;;;;;3.40;2.00;;;26.70;99.90;;;;;;5113460;27;20412;-78
2022/07/30 13:03:39;;;;;;;5.45;2.15;;;26.50;99.90;;;;;;5118123;27;20408;-78
2022/07/30 13:06:25;;;;;;;5.53;2.00;;;26.30;99.90;;;;;;5113875;27;20400;-77
2022/07/30 13:08:59;;;;;;;3.10;1.58;;;26.10;99.90;;;;;;5115774;27;20914;-78
2022/07/30 13:11:36;;;;;;;4.95;1.90;;;26.30;99.90;;;;;;5131658;27;20435;-78
2022/07/30 13:14:02;;;;;;;5.15;1.75;;;26.10;99.90;;;;;;5111243;27;20420;-78
2022/07/30 13:16:31;;;;;;;3.45;1.67;;;26.40;99.90;;;;;;5121107;27;20410;-78
2022/07/30 13:18:57;;;;;;;4.00;1.90;;;26.40;99.90;;;;;;5123510;27;20811;-78
2022/07/30 13:21:24;;;;;;;3.85;1.70;;;26.40;99.90;;;;;;5113672;28;20903;-79
2022/07/30 13:23:50;;;;;;;3.38;1.70;;;26.30;99.90;;;;;;5125693;27;20446;-76
2022/07/30 13:26:16;;;;;;;3.33;1.67;;;26.20;99.90;;;;;;5109089;27;20843;-76